sensor_id;sensor_type;location;lat;lon;timestamp;P1;durP1;ratioP1;P2;durP2;ratioP2
20283;SDS011;10301;50.832;4.080;2023-07-30T00:01:17;11.65;;;3.35;;
20283;SDS011;10301;50.832;4.080;2023-07-30T00:03:42;14.55;;;3.40;;
20283;SDS011;10301;50.832;4.080;2023-07-30T00:06:08;15.30;;;3.83;;
20283;SDS011;10301;50.832;4.080;2023-07-30T00:08:34;10.80;;;2.88;;
20283;SDS011;10301;50.832;4.080;2023-07-30T00:10:59;10.02;;;3.35;;
20283;SDS011;10301;50.832;4.080;2023-07-30T00:13:25;9.70;;;3.95;;
20283;SDS011;10301;50.832;4.080;2023-07-30T00:15:51;16.23;;;4.18;;
20283;SDS011;10301;50.832;4.080;2023-07-30T00:18:16;11.85;;;2.92;;
20283;SDS011;10301;50.832;4.080;2023-07-30T00:20:42;13.75;;;3.70;;
20283;SDS011;10301;50.832;4.080;2023-07-30T00:23:08;10.05;;;3.72;;
20283;SDS011;10301;50.832;4.080;2023-07-30T00:25:34;16.33;;;3.35;;
20283;SDS011;10301;50.832;4.080;2023-07-30T00:28:00;14.15;;;3.40;;
20283;SDS011;10301;50.832;4.080;2023-07-30T00:30:25;18.42;;;3.55;;
20283;SDS011;10301;50.832;4.080;2023-07-30T00:32:51;8.25;;;2.90;;
20283;SDS011;10301;50.832;4.080;2023-07-30T00:35:17;15.90;;;3.65;;
20283;SDS011;10301;50.832;4.080;2023-07-30T00:37:42;14.25;;;3.20;;
20283;SDS011;10301;50.832;4.080;2023-07-30T00:40:08;17.30;;;3.40;;
20283;SDS011;10301;50.832;4.080;2023-07-30T00:42:34;14.57;;;3.28;;
20283;SDS011;10301;50.832;4.080;2023-07-30T00:45:00;9.50;;;2.92;;
20283;SDS011;10301;50.832;4.080;2023-07-30T00:47:26;12.38;;;3.05;;
20283;SDS011;10301;50.832;4.080;2023-07-30T00:49:52;11.55;;;3.58;;
20283;SDS011;10301;50.832;4.080;2023-07-30T00:52:19;15.02;;;2.88;;
20283;SDS011;10301;50.832;4.080;2023-07-30T00:54:46;11.77;;;3.47;;
20283;SDS011;10301;50.832;4.080;2023-07-30T00:57:13;14.68;;;3.20;;
20283;SDS011;10301;50.832;4.080;2023-07-30T00:59:40;13.80;;;3.08;;
20283;SDS011;10301;50.832;4.080;2023-07-30T01:02:07;14.43;;;3.50;;
20283;SDS011;10301;50.832;4.080;2023-07-30T01:04:33;14.70;;;2.88;;
20283;SDS011;10301;50.832;4.080;2023-07-30T01:06:58;13.02;;;2.50;;
20283;SDS011;10301;50.832;4.080;2023-07-30T01:09:24;11.57;;;2.72;;
20283;SDS011;10301;50.832;4.080;2023-07-30T01:11:51;16.80;;;3.22;;
20283;SDS011;10301;50.832;4.080;2023-07-30T01:14:18;13.07;;;2.35;;
20283;SDS011;10301;50.832;4.080;2023-07-30T01:16:45;12.73;;;2.97;;
20283;SDS011;10301;50.832;4.080;2023-07-30T01:19:11;15.60;;;2.85;;
20283;SDS011;10301;50.832;4.080;2023-07-30T01:21:36;14.77;;;2.80;;
20283;SDS011;10301;50.832;4.080;2023-07-30T01:24:02;16.77;;;3.42;;
20283;SDS011;10301;50.832;4.080;2023-07-30T01:26:39;10.35;;;2.58;;
20283;SDS011;10301;50.832;4.080;2023-07-30T01:29:11;14.98;;;2.78;;
20283;SDS011;10301;50.832;4.080;2023-07-30T01:31:43;13.18;;;3.25;;
20283;SDS011;10301;50.832;4.080;2023-07-30T01:34:14;17.10;;;3.22;;
20283;SDS011;10301;50.832;4.080;2023-07-30T01:36:40;14.07;;;2.67;;
20283;SDS011;10301;50.832;4.080;2023-07-30T01:39:07;14.35;;;2.97;;
20283;SDS011;10301;50.832;4.080;2023-07-30T01:41:36;13.25;;;2.63;;
20283;SDS011;10301;50.832;4.080;2023-07-30T01:44:02;14.43;;;2.83;;
20283;SDS011;10301;50.832;4.080;2023-07-30T01:46:27;13.52;;;2.85;;
20283;SDS011;10301;50.832;4.080;2023-07-30T01:48:53;15.88;;;2.67;;
20283;SDS011;10301;50.832;4.080;2023-07-30T01:51:18;17.15;;;3.00;;
20283;SDS011;10301;50.832;4.080;2023-07-30T01:53:45;13.68;;;2.50;;
20283;SDS011;10301;50.832;4.080;2023-07-30T01:56:11;15.00;;;2.80;;
20283;SDS011;10301;50.832;4.080;2023-07-30T01:58:36;15.43;;;3.05;;
20283;SDS011;10301;50.832;4.080;2023-07-30T02:01:02;13.73;;;2.72;;
20283;SDS011;10301;50.832;4.080;2023-07-30T02:03:28;16.52;;;3.45;;
20283;SDS011;10301;50.832;4.080;2023-07-30T02:05:53;18.75;;;2.60;;
20283;SDS011;10301;50.832;4.080;2023-07-30T02:08:19;13.98;;;2.80;;
20283;SDS011;10301;50.832;4.080;2023-07-30T02:10:53;11.77;;;3.00;;
20283;SDS011;10301;50.832;4.080;2023-07-30T02:13:23;12.68;;;2.85;;
20283;SDS011;10301;50.832;4.080;2023-07-30T02:15:49;13.63;;;2.75;;
20283;SDS011;10301;50.832;4.080;2023-07-30T02:18:15;13.95;;;2.17;;
20283;SDS011;10301;50.832;4.080;2023-07-30T02:20:40;13.23;;;2.63;;
20283;SDS011;10301;50.832;4.080;2023-07-30T02:23:07;14.57;;;2.83;;
20283;SDS011;10301;50.832;4.080;2023-07-30T02:25:33;16.20;;;3.25;;
20283;SDS011;10301;50.832;4.080;2023-07-30T02:27:59;12.82;;;2.35;;
20283;SDS011;10301;50.832;4.080;2023-07-30T02:30:26;17.33;;;2.70;;
20283;SDS011;10301;50.832;4.080;2023-07-30T02:32:52;15.23;;;3.38;;
20283;SDS011;10301;50.832;4.080;2023-07-30T02:35:18;11.18;;;2.50;;
20283;SDS011;10301;50.832;4.080;2023-07-30T02:37:43;14.23;;;2.70;;
20283;SDS011;10301;50.832;4.080;2023-07-30T02:40:09;12.70;;;2.50;;
20283;SDS011;10301;50.832;4.080;2023-07-30T02:42:35;19.33;;;2.75;;
20283;SDS011;10301;50.832;4.080;2023-07-30T02:45:01;22.33;;;3.15;;
20283;SDS011;10301;50.832;4.080;2023-07-30T02:47:26;14.60;;;2.75;;
20283;SDS011;10301;50.832;4.080;2023-07-30T02:49:52;16.80;;;2.75;;
20283;SDS011;10301;50.832;4.080;2023-07-30T02:52:18;12.05;;;2.60;;
20283;SDS011;10301;50.832;4.080;2023-07-30T02:54:44;17.40;;;2.60;;
20283;SDS011;10301;50.832;4.080;2023-07-30T02:57:09;22.02;;;3.25;;
20283;SDS011;10301;50.832;4.080;2023-07-30T02:59:36;20.00;;;3.13;;
20283;SDS011;10301;50.832;4.080;2023-07-30T03:02:02;15.65;;;3.03;;
20283;SDS011;10301;50.832;4.080;2023-07-30T03:04:30;12.35;;;2.90;;
20283;SDS011;10301;50.832;4.080;2023-07-30T03:06:56;19.63;;;2.83;;
20283;SDS011;10301;50.832;4.080;2023-07-30T03:09:21;12.80;;;2.50;;
20283;SDS011;10301;50.832;4.080;2023-07-30T03:11:47;17.42;;;2.45;;
20283;SDS011;10301;50.832;4.080;2023-07-30T03:14:16;17.63;;;3.22;;
20283;SDS011;10301;50.832;4.080;2023-07-30T03:16:45;10.95;;;2.47;;
20283;SDS011;10301;50.832;4.080;2023-07-30T03:19:11;14.38;;;3.10;;
20283;SDS011;10301;50.832;4.080;2023-07-30T03:21:37;18.95;;;2.97;;
20283;SDS011;10301;50.832;4.080;2023-07-30T03:24:03;19.08;;;3.10;;
20283;SDS011;10301;50.832;4.080;2023-07-30T03:26:29;20.40;;;2.90;;
20283;SDS011;10301;50.832;4.080;2023-07-30T03:28:54;15.88;;;3.00;;
20283;SDS011;10301;50.832;4.080;2023-07-30T03:31:20;21.48;;;3.47;;
20283;SDS011;10301;50.832;4.080;2023-07-30T03:33:46;17.25;;;3.00;;
20283;SDS011;10301;50.832;4.080;2023-07-30T03:36:12;16.48;;;3.03;;
20283;SDS011;10301;50.832;4.080;2023-07-30T03:38:38;17.15;;;2.85;;
20283;SDS011;10301;50.832;4.080;2023-07-30T03:41:05;18.65;;;3.20;;
20283;SDS011;10301;50.832;4.080;2023-07-30T03:43:31;18.08;;;3.30;;
20283;SDS011;10301;50.832;4.080;2023-07-30T03:46:00;15.50;;;2.90;;
20283;SDS011;10301;50.832;4.080;2023-07-30T03:48:26;11.90;;;3.05;;
20283;SDS011;10301;50.832;4.080;2023-07-30T03:50:52;16.60;;;3.00;;
20283;SDS011;10301;50.832;4.080;2023-07-30T03:53:18;14.10;;;2.97;;
20283;SDS011;10301;50.832;4.080;2023-07-30T03:55:44;16.75;;;3.05;;
20283;SDS011;10301;50.832;4.080;2023-07-30T03:58:10;15.73;;;2.58;;
20283;SDS011;10301;50.832;4.080;2023-07-30T04:00:35;15.50;;;2.72;;
20283;SDS011;10301;50.832;4.080;2023-07-30T04:03:01;17.95;;;2.60;;
20283;SDS011;10301;50.832;4.080;2023-07-30T04:05:27;12.88;;;2.55;;
20283;SDS011;10301;50.832;4.080;2023-07-30T04:07:52;16.80;;;3.33;;
20283;SDS011;10301;50.832;4.080;2023-07-30T04:10:18;17.05;;;3.00;;
20283;SDS011;10301;50.832;4.080;2023-07-30T04:12:44;15.88;;;3.30;;
20283;SDS011;10301;50.832;4.080;2023-07-30T04:15:10;15.73;;;3.00;;
20283;SDS011;10301;50.832;4.080;2023-07-30T04:17:36;16.63;;;2.90;;
20283;SDS011;10301;50.832;4.080;2023-07-30T04:20:02;19.85;;;3.00;;
20283;SDS011;10301;50.832;4.080;2023-07-30T04:22:29;13.63;;;2.80;;
20283;SDS011;10301;50.832;4.080;2023-07-30T04:24:55;16.83;;;2.58;;
20283;SDS011;10301;50.832;4.080;2023-07-30T04:27:20;11.85;;;3.13;;
20283;SDS011;10301;50.832;4.080;2023-07-30T04:29:46;17.45;;;3.03;;
20283;SDS011;10301;50.832;4.080;2023-07-30T04:32:12;13.65;;;3.15;;
20283;SDS011;10301;50.832;4.080;2023-07-30T04:34:38;18.30;;;3.13;;
20283;SDS011;10301;50.832;4.080;2023-07-30T04:37:04;13.05;;;2.80;;
20283;SDS011;10301;50.832;4.080;2023-07-30T04:39:32;19.33;;;3.05;;
20283;SDS011;10301;50.832;4.080;2023-07-30T04:41:58;16.15;;;3.25;;
20283;SDS011;10301;50.832;4.080;2023-07-30T04:44:24;17.67;;;3.20;;
20283;SDS011;10301;50.832;4.080;2023-07-30T04:46:50;18.27;;;2.83;;
20283;SDS011;10301;50.832;4.080;2023-07-30T04:49:16;17.27;;;3.03;;
20283;SDS011;10301;50.832;4.080;2023-07-30T04:51:42;14.05;;;2.63;;
20283;SDS011;10301;50.832;4.080;2023-07-30T04:54:07;12.68;;;3.05;;
20283;SDS011;10301;50.832;4.080;2023-07-30T04:56:33;18.98;;;3.67;;
20283;SDS011;10301;50.832;4.080;2023-07-30T04:58:59;16.73;;;3.38;;
20283;SDS011;10301;50.832;4.080;2023-07-30T05:01:25;15.20;;;3.10;;
20283;SDS011;10301;50.832;4.080;2023-07-30T05:03:51;17.60;;;2.97;;
20283;SDS011;10301;50.832;4.080;2023-07-30T05:06:17;13.52;;;2.97;;
20283;SDS011;10301;50.832;4.080;2023-07-30T05:08:42;17.48;;;2.75;;
20283;SDS011;10301;50.832;4.080;2023-07-30T05:11:08;14.43;;;3.00;;
20283;SDS011;10301;50.832;4.080;2023-07-30T05:13:34;16.48;;;3.08;;
20283;SDS011;10301;50.832;4.080;2023-07-30T05:15:59;16.75;;;3.40;;
20283;SDS011;10301;50.832;4.080;2023-07-30T05:18:25;14.98;;;3.28;;
20283;SDS011;10301;50.832;4.080;2023-07-30T05:20:51;17.45;;;2.90;;
20283;SDS011;10301;50.832;4.080;2023-07-30T05:23:17;16.27;;;3.25;;
20283;SDS011;10301;50.832;4.080;2023-07-30T05:25:42;16.63;;;3.08;;
20283;SDS011;10301;50.832;4.080;2023-07-30T05:28:08;16.80;;;3.80;;
20283;SDS011;10301;50.832;4.080;2023-07-30T05:30:33;19.38;;;3.60;;
20283;SDS011;10301;50.832;4.080;2023-07-30T05:32:59;14.10;;;2.80;;
20283;SDS011;10301;50.832;4.080;2023-07-30T05:35:25;18.95;;;3.45;;
20283;SDS011;10301;50.832;4.080;2023-07-30T05:37:50;18.63;;;3.05;;
20283;SDS011;10301;50.832;4.080;2023-07-30T05:40:16;18.52;;;3.60;;
20283;SDS011;10301;50.832;4.080;2023-07-30T05:42:42;19.55;;;3.15;;
20283;SDS011;10301;50.832;4.080;2023-07-30T05:45:07;14.93;;;4.32;;
20283;SDS011;10301;50.832;4.080;2023-07-30T05:47:33;14.48;;;2.67;;
20283;SDS011;10301;50.832;4.080;2023-07-30T05:49:59;15.65;;;3.40;;
20283;SDS011;10301;50.832;4.080;2023-07-30T05:52:24;15.63;;;3.30;;
20283;SDS011;10301;50.832;4.080;2023-07-30T05:54:50;17.67;;;3.30;;
20283;SDS011;10301;50.832;4.080;2023-07-30T05:57:16;20.85;;;2.85;;
20283;SDS011;10301;50.832;4.080;2023-07-30T05:59:41;16.40;;;3.13;;
20283;SDS011;10301;50.832;4.080;2023-07-30T06:02:07;17.85;;;3.13;;
20283;SDS011;10301;50.832;4.080;2023-07-30T06:04:33;13.52;;;2.53;;
20283;SDS011;10301;50.832;4.080;2023-07-30T06:07:04;15.85;;;3.15;;
20283;SDS011;10301;50.832;4.080;2023-07-30T06:09:30;14.88;;;3.42;;
20283;SDS011;10301;50.832;4.080;2023-07-30T06:11:56;17.75;;;3.42;;
20283;SDS011;10301;50.832;4.080;2023-07-30T06:14:22;12.95;;;3.50;;
20283;SDS011;10301;50.832;4.080;2023-07-30T06:16:48;14.32;;;3.00;;
20283;SDS011;10301;50.832;4.080;2023-07-30T06:19:14;19.30;;;3.65;;
20283;SDS011;10301;50.832;4.080;2023-07-30T06:21:40;18.15;;;3.50;;
20283;SDS011;10301;50.832;4.080;2023-07-30T06:24:05;21.30;;;4.18;;
20283;SDS011;10301;50.832;4.080;2023-07-30T06:26:31;18.20;;;3.05;;
20283;SDS011;10301;50.832;4.080;2023-07-30T06:28:57;17.73;;;2.97;;
20283;SDS011;10301;50.832;4.080;2023-07-30T06:31:22;16.58;;;3.13;;
20283;SDS011;10301;50.832;4.080;2023-07-30T06:33:48;17.90;;;3.08;;
20283;SDS011;10301;50.832;4.080;2023-07-30T06:36:14;18.05;;;4.30;;
20283;SDS011;10301;50.832;4.080;2023-07-30T06:38:39;15.02;;;2.88;;
20283;SDS011;10301;50.832;4.080;2023-07-30T06:41:05;16.88;;;3.38;;
20283;SDS011;10301;50.832;4.080;2023-07-30T06:43:31;19.35;;;3.45;;
20283;SDS011;10301;50.832;4.080;2023-07-30T06:45:56;19.90;;;3.90;;
20283;SDS011;10301;50.832;4.080;2023-07-30T06:48:22;16.20;;;3.20;;
20283;SDS011;10301;50.832;4.080;2023-07-30T06:50:47;23.40;;;4.05;;
20283;SDS011;10301;50.832;4.080;2023-07-30T06:53:13;18.40;;;3.78;;
20283;SDS011;10301;50.832;4.080;2023-07-30T06:55:39;17.98;;;4.10;;
20283;SDS011;10301;50.832;4.080;2023-07-30T06:58:04;20.67;;;3.30;;
20283;SDS011;10301;50.832;4.080;2023-07-30T07:00:36;14.90;;;3.55;;
20283;SDS011;10301;50.832;4.080;2023-07-30T07:03:02;17.15;;;3.35;;
20283;SDS011;10301;50.832;4.080;2023-07-30T07:05:28;20.80;;;3.13;;
20283;SDS011;10301;50.832;4.080;2023-07-30T07:07:54;15.05;;;3.03;;
20283;SDS011;10301;50.832;4.080;2023-07-30T07:10:20;16.58;;;3.45;;
20283;SDS011;10301;50.832;4.080;2023-07-30T07:12:45;13.23;;;2.97;;
20283;SDS011;10301;50.832;4.080;2023-07-30T07:15:12;13.95;;;3.33;;
20283;SDS011;10301;50.832;4.080;2023-07-30T07:17:37;16.77;;;3.25;;
20283;SDS011;10301;50.832;4.080;2023-07-30T07:20:03;15.65;;;3.00;;
20283;SDS011;10301;50.832;4.080;2023-07-30T07:22:31;15.82;;;3.15;;
20283;SDS011;10301;50.832;4.080;2023-07-30T07:24:57;18.88;;;3.53;;
20283;SDS011;10301;50.832;4.080;2023-07-30T07:27:22;15.60;;;3.03;;
20283;SDS011;10301;50.832;4.080;2023-07-30T07:29:49;16.70;;;3.47;;
20283;SDS011;10301;50.832;4.080;2023-07-30T07:32:16;15.75;;;3.47;;
20283;SDS011;10301;50.832;4.080;2023-07-30T07:34:45;15.63;;;3.08;;
20283;SDS011;10301;50.832;4.080;2023-07-30T07:37:14;19.58;;;3.30;;
20283;SDS011;10301;50.832;4.080;2023-07-30T07:39:41;16.77;;;3.28;;
20283;SDS011;10301;50.832;4.080;2023-07-30T07:42:08;13.90;;;3.08;;
20283;SDS011;10301;50.832;4.080;2023-07-30T07:44:34;15.32;;;3.28;;
20283;SDS011;10301;50.832;4.080;2023-07-30T07:47:00;18.10;;;3.45;;
20283;SDS011;10301;50.832;4.080;2023-07-30T07:49:25;13.23;;;3.00;;
20283;SDS011;10301;50.832;4.080;2023-07-30T07:51:51;11.57;;;2.65;;
20283;SDS011;10301;50.832;4.080;2023-07-30T07:54:16;14.23;;;3.20;;
20283;SDS011;10301;50.832;4.080;2023-07-30T07:56:42;13.20;;;2.80;;
20283;SDS011;10301;50.832;4.080;2023-07-30T07:59:08;17.25;;;3.30;;
20283;SDS011;10301;50.832;4.080;2023-07-30T08:01:33;13.40;;;2.92;;
20283;SDS011;10301;50.832;4.080;2023-07-30T08:03:59;14.30;;;2.60;;
20283;SDS011;10301;50.832;4.080;2023-07-30T08:06:24;12.05;;;2.15;;
20283;SDS011;10301;50.832;4.080;2023-07-30T08:08:50;15.90;;;3.50;;
20283;SDS011;10301;50.832;4.080;2023-07-30T08:11:16;12.70;;;3.03;;
20283;SDS011;10301;50.832;4.080;2023-07-30T08:13:41;20.17;;;2.85;;
20283;SDS011;10301;50.832;4.080;2023-07-30T08:16:07;18.40;;;3.45;;
20283;SDS011;10301;50.832;4.080;2023-07-30T08:18:33;9.93;;;2.78;;
20283;SDS011;10301;50.832;4.080;2023-07-30T08:20:59;16.15;;;3.20;;
20283;SDS011;10301;50.832;4.080;2023-07-30T08:23:25;14.88;;;2.85;;
20283;SDS011;10301;50.832;4.080;2023-07-30T08:25:51;14.13;;;3.35;;
20283;SDS011;10301;50.832;4.080;2023-07-30T08:28:16;19.98;;;3.33;;
20283;SDS011;10301;50.832;4.080;2023-07-30T08:30:42;15.48;;;3.30;;
20283;SDS011;10301;50.832;4.080;2023-07-30T08:33:08;13.60;;;3.08;;
20283;SDS011;10301;50.832;4.080;2023-07-30T08:35:33;12.90;;;3.15;;
20283;SDS011;10301;50.832;4.080;2023-07-30T08:37:59;14.55;;;3.10;;
20283;SDS011;10301;50.832;4.080;2023-07-30T08:40:24;14.48;;;2.35;;
20283;SDS011;10301;50.832;4.080;2023-07-30T08:42:51;14.82;;;2.50;;
20283;SDS011;10301;50.832;4.080;2023-07-30T08:45:17;12.82;;;2.45;;
20283;SDS011;10301;50.832;4.080;2023-07-30T08:47:43;15.65;;;2.85;;
20283;SDS011;10301;50.832;4.080;2023-07-30T08:50:10;15.00;;;2.97;;
20283;SDS011;10301;50.832;4.080;2023-07-30T08:52:36;16.20;;;3.42;;
20283;SDS011;10301;50.832;4.080;2023-07-30T08:55:02;15.38;;;2.50;;
20283;SDS011;10301;50.832;4.080;2023-07-30T08:57:29;14.88;;;2.58;;
20283;SDS011;10301;50.832;4.080;2023-07-30T09:00:03;14.57;;;2.88;;
20283;SDS011;10301;50.832;4.080;2023-07-30T09:02:33;14.57;;;2.65;;
20283;SDS011;10301;50.832;4.080;2023-07-30T09:05:02;11.77;;;2.72;;
20283;SDS011;10301;50.832;4.080;2023-07-30T09:07:29;11.73;;;2.28;;
20283;SDS011;10301;50.832;4.080;2023-07-30T09:09:54;11.75;;;2.72;;
20283;SDS011;10301;50.832;4.080;2023-07-30T09:12:25;14.70;;;2.65;;
20283;SDS011;10301;50.832;4.080;2023-07-30T09:14:55;13.73;;;2.67;;
20283;SDS011;10301;50.832;4.080;2023-07-30T09:17:21;7.80;;;2.10;;
20283;SDS011;10301;50.832;4.080;2023-07-30T09:19:47;10.25;;;2.55;;
20283;SDS011;10301;50.832;4.080;2023-07-30T09:22:13;16.02;;;2.80;;
20283;SDS011;10301;50.832;4.080;2023-07-30T09:24:44;10.63;;;2.65;;
20283;SDS011;10301;50.832;4.080;2023-07-30T09:27:10;14.50;;;3.22;;
20283;SDS011;10301;50.832;4.080;2023-07-30T09:29:36;10.30;;;2.53;;
20283;SDS011;10301;50.832;4.080;2023-07-30T09:32:01;7.93;;;2.50;;
20283;SDS011;10301;50.832;4.080;2023-07-30T09:34:27;9.43;;;2.28;;
20283;SDS011;10301;50.832;4.080;2023-07-30T09:36:55;10.23;;;2.20;;
20283;SDS011;10301;50.832;4.080;2023-07-30T09:39:25;13.80;;;3.22;;
20283;SDS011;10301;50.832;4.080;2023-07-30T09:41:52;11.13;;;2.65;;
20283;SDS011;10301;50.832;4.080;2023-07-30T09:44:24;9.98;;;2.55;;
20283;SDS011;10301;50.832;4.080;2023-07-30T09:46:50;10.10;;;2.35;;
20283;SDS011;10301;50.832;4.080;2023-07-30T09:49:16;12.23;;;3.22;;
20283;SDS011;10301;50.832;4.080;2023-07-30T09:51:42;11.23;;;2.85;;
20283;SDS011;10301;50.832;4.080;2023-07-30T09:54:09;11.32;;;2.40;;
20283;SDS011;10301;50.832;4.080;2023-07-30T09:56:36;14.35;;;2.35;;
20283;SDS011;10301;50.832;4.080;2023-07-30T09:59:04;15.27;;;2.63;;
20283;SDS011;10301;50.832;4.080;2023-07-30T10:01:30;12.13;;;2.65;;
20283;SDS011;10301;50.832;4.080;2023-07-30T10:03:56;13.15;;;3.00;;
20283;SDS011;10301;50.832;4.080;2023-07-30T10:06:27;15.32;;;2.92;;
20283;SDS011;10301;50.832;4.080;2023-07-30T10:08:56;14.52;;;2.88;;
20283;SDS011;10301;50.832;4.080;2023-07-30T10:11:24;12.02;;;2.50;;
20283;SDS011;10301;50.832;4.080;2023-07-30T10:13:52;12.05;;;2.30;;
20283;SDS011;10301;50.832;4.080;2023-07-30T10:16:21;11.38;;;2.40;;
20283;SDS011;10301;50.832;4.080;2023-07-30T10:18:51;12.95;;;2.30;;
20283;SDS011;10301;50.832;4.080;2023-07-30T10:21:23;8.82;;;2.28;;
20283;SDS011;10301;50.832;4.080;2023-07-30T10:24:01;14.50;;;2.33;;
20283;SDS011;10301;50.832;4.080;2023-07-30T10:26:28;10.48;;;2.45;;
20283;SDS011;10301;50.832;4.080;2023-07-30T10:29:09;9.55;;;2.40;;
20283;SDS011;10301;50.832;4.080;2023-07-30T10:31:43;9.00;;;2.17;;
20283;SDS011;10301;50.832;4.080;2023-07-30T10:34:20;12.77;;;2.10;;
20283;SDS011;10301;50.832;4.080;2023-07-30T10:36:46;12.25;;;2.70;;
20283;SDS011;10301;50.832;4.080;2023-07-30T10:39:17;9.57;;;2.40;;
20283;SDS011;10301;50.832;4.080;2023-07-30T10:41:45;10.20;;;2.53;;
20283;SDS011;10301;50.832;4.080;2023-07-30T10:46:57;8.27;;;1.75;;
20283;SDS011;10301;50.832;4.080;2023-07-30T10:49:24;10.32;;;2.42;;
20283;SDS011;10301;50.832;4.080;2023-07-30T10:51:53;9.60;;;2.03;;
20283;SDS011;10301;50.832;4.080;2023-07-30T10:54:20;9.95;;;2.00;;
20283;SDS011;10301;50.832;4.080;2023-07-30T10:56:47;8.18;;;1.90;;
20283;SDS011;10301;50.832;4.080;2023-07-30T10:59:13;8.55;;;1.88;;
20283;SDS011;10301;50.832;4.080;2023-07-30T11:01:41;16.88;;;2.30;;
20283;SDS011;10301;50.832;4.080;2023-07-30T11:04:18;7.38;;;2.05;;
20283;SDS011;10301;50.832;4.080;2023-07-30T11:06:45;7.30;;;1.52;;
20283;SDS011;10301;50.832;4.080;2023-07-30T11:09:18;12.68;;;2.10;;
20283;SDS011;10301;50.832;4.080;2023-07-30T11:11:48;9.13;;;2.08;;
20283;SDS011;10301;50.832;4.080;2023-07-30T11:14:18;9.80;;;1.67;;
20283;SDS011;10301;50.832;4.080;2023-07-30T11:16:55;7.90;;;1.90;;
20283;SDS011;10301;50.832;4.080;2023-07-30T11:19:25;7.82;;;1.58;;
20283;SDS011;10301;50.832;4.080;2023-07-30T11:21:52;6.90;;;1.88;;
20283;SDS011;10301;50.832;4.080;2023-07-30T11:24:21;6.63;;;1.50;;
20283;SDS011;10301;50.832;4.080;2023-07-30T11:26:59;6.53;;;1.58;;
20283;SDS011;10301;50.832;4.080;2023-07-30T11:29:25;9.73;;;1.63;;
20283;SDS011;10301;50.832;4.080;2023-07-30T11:31:52;9.95;;;1.73;;
20283;SDS011;10301;50.832;4.080;2023-07-30T11:34:22;9.85;;;1.67;;
20283;SDS011;10301;50.832;4.080;2023-07-30T11:36:47;6.95;;;1.40;;
20283;SDS011;10301;50.832;4.080;2023-07-30T11:39:14;5.20;;;1.40;;
20283;SDS011;10301;50.832;4.080;2023-07-30T11:41:39;6.45;;;1.20;;
20283;SDS011;10301;50.832;4.080;2023-07-30T11:44:06;6.68;;;1.40;;
20283;SDS011;10301;50.832;4.080;2023-07-30T11:46:31;9.00;;;1.77;;
20283;SDS011;10301;50.832;4.080;2023-07-30T11:49:11;7.70;;;1.63;;
20283;SDS011;10301;50.832;4.080;2023-07-30T11:51:38;6.88;;;1.27;;
20283;SDS011;10301;50.832;4.080;2023-07-30T11:54:04;6.13;;;1.52;;
20283;SDS011;10301;50.832;4.080;2023-07-30T11:56:31;8.75;;;1.60;;
20283;SDS011;10301;50.832;4.080;2023-07-30T12:01:26;7.72;;;1.70;;
20283;SDS011;10301;50.832;4.080;2023-07-30T12:03:55;7.63;;;1.58;;
20283;SDS011;10301;50.832;4.080;2023-07-30T12:09:24;7.75;;;1.77;;
20283;SDS011;10301;50.832;4.080;2023-07-30T12:11:53;7.80;;;1.75;;
20283;SDS011;10301;50.832;4.080;2023-07-30T12:14:42;8.13;;;1.98;;
20283;SDS011;10301;50.832;4.080;2023-07-30T12:17:09;5.85;;;1.40;;
20283;SDS011;10301;50.832;4.080;2023-07-30T12:19:35;7.20;;;1.80;;
20283;SDS011;10301;50.832;4.080;2023-07-30T12:22:04;8.25;;;1.58;;
20283;SDS011;10301;50.832;4.080;2023-07-30T12:24:29;13.18;;;3.25;;
20283;SDS011;10301;50.832;4.080;2023-07-30T12:26:55;6.93;;;2.00;;
20283;SDS011;10301;50.832;4.080;2023-07-30T12:29:21;7.45;;;1.42;;
20283;SDS011;10301;50.832;4.080;2023-07-30T12:31:46;7.05;;;1.77;;
20283;SDS011;10301;50.832;4.080;2023-07-30T12:34:12;7.32;;;1.35;;
20283;SDS011;10301;50.832;4.080;2023-07-30T12:36:38;7.88;;;1.40;;
20283;SDS011;10301;50.832;4.080;2023-07-30T12:39:04;6.88;;;1.70;;
20283;SDS011;10301;50.832;4.080;2023-07-30T12:41:30;6.00;;;1.60;;
20283;SDS011;10301;50.832;4.080;2023-07-30T12:43:56;8.25;;;1.80;;
20283;SDS011;10301;50.832;4.080;2023-07-30T12:46:22;4.97;;;1.60;;
20283;SDS011;10301;50.832;4.080;2023-07-30T12:48:48;7.18;;;1.50;;
20283;SDS011;10301;50.832;4.080;2023-07-30T12:51:14;5.05;;;1.30;;
20283;SDS011;10301;50.832;4.080;2023-07-30T12:53:39;6.53;;;1.73;;
20283;SDS011;10301;50.832;4.080;2023-07-30T12:56:05;7.93;;;2.17;;
20283;SDS011;10301;50.832;4.080;2023-07-30T12:58:31;5.28;;;1.70;;
20283;SDS011;10301;50.832;4.080;2023-07-30T13:00:57;6.82;;;1.75;;
20283;SDS011;10301;50.832;4.080;2023-07-30T13:03:22;6.88;;;1.90;;
20283;SDS011;10301;50.832;4.080;2023-07-30T13:05:48;6.38;;;1.88;;
20283;SDS011;10301;50.832;4.080;2023-07-30T13:08:13;7.28;;;2.20;;
20283;SDS011;10301;50.832;4.080;2023-07-30T13:10:39;8.57;;;1.83;;
20283;SDS011;10301;50.832;4.080;2023-07-30T13:13:05;7.25;;;1.90;;
20283;SDS011;10301;50.832;4.080;2023-07-30T13:15:30;8.05;;;1.90;;
20283;SDS011;10301;50.832;4.080;2023-07-30T13:17:56;7.38;;;2.10;;
20283;SDS011;10301;50.832;4.080;2023-07-30T13:20:22;5.65;;;1.92;;
20283;SDS011;10301;50.832;4.080;2023-07-30T13:22:47;5.93;;;1.80;;
20283;SDS011;10301;50.832;4.080;2023-07-30T13:25:15;7.18;;;1.92;;
20283;SDS011;10301;50.832;4.080;2023-07-30T13:27:40;6.07;;;1.95;;
20283;SDS011;10301;50.832;4.080;2023-07-30T13:30:06;9.68;;;2.53;;
20283;SDS011;10301;50.832;4.080;2023-07-30T13:32:32;7.47;;;2.08;;
20283;SDS011;10301;50.832;4.080;2023-07-30T13:34:58;7.53;;;2.13;;
20283;SDS011;10301;50.832;4.080;2023-07-30T13:37:23;8.02;;;2.05;;
20283;SDS011;10301;50.832;4.080;2023-07-30T13:39:49;6.65;;;2.33;;
20283;SDS011;10301;50.832;4.080;2023-07-30T13:42:15;9.40;;;2.10;;
20283;SDS011;10301;50.832;4.080;2023-07-30T13:44:40;8.68;;;2.72;;
20283;SDS011;10301;50.832;4.080;2023-07-30T13:47:07;6.85;;;1.90;;
20283;SDS011;10301;50.832;4.080;2023-07-30T13:49:32;6.63;;;2.25;;
20283;SDS011;10301;50.832;4.080;2023-07-30T13:51:58;8.40;;;2.55;;
20283;SDS011;10301;50.832;4.080;2023-07-30T13:54:24;7.18;;;2.00;;
20283;SDS011;10301;50.832;4.080;2023-07-30T13:56:49;7.80;;;2.22;;
20283;SDS011;10301;50.832;4.080;2023-07-30T13:59:15;13.18;;;2.60;;
20283;SDS011;10301;50.832;4.080;2023-07-30T14:01:41;6.70;;;2.10;;
20283;SDS011;10301;50.832;4.080;2023-07-30T14:04:06;9.30;;;2.58;;
20283;SDS011;10301;50.832;4.080;2023-07-30T14:06:32;9.98;;;2.50;;
20283;SDS011;10301;50.832;4.080;2023-07-30T14:08:58;11.07;;;2.25;;
20283;SDS011;10301;50.832;4.080;2023-07-30T14:11:26;8.75;;;2.33;;
20283;SDS011;10301;50.832;4.080;2023-07-30T14:13:52;12.13;;;2.40;;
20283;SDS011;10301;50.832;4.080;2023-07-30T14:16:18;11.48;;;2.80;;
20283;SDS011;10301;50.832;4.080;2023-07-30T14:18:44;6.68;;;2.10;;
20283;SDS011;10301;50.832;4.080;2023-07-30T14:21:09;7.40;;;2.45;;
20283;SDS011;10301;50.832;4.080;2023-07-30T14:23:36;8.82;;;2.47;;
20283;SDS011;10301;50.832;4.080;2023-07-30T14:26:02;9.35;;;2.28;;
20283;SDS011;10301;50.832;4.080;2023-07-30T14:28:28;7.55;;;2.80;;
20283;SDS011;10301;50.832;4.080;2023-07-30T14:30:54;9.73;;;3.78;;
20283;SDS011;10301;50.832;4.080;2023-07-30T14:33:20;9.93;;;2.70;;
20283;SDS011;10301;50.832;4.080;2023-07-30T14:35:45;9.48;;;2.70;;
20283;SDS011;10301;50.832;4.080;2023-07-30T14:38:11;8.98;;;2.85;;
20283;SDS011;10301;50.832;4.080;2023-07-30T14:40:38;11.75;;;2.80;;
20283;SDS011;10301;50.832;4.080;2023-07-30T14:43:03;11.32;;;2.85;;